DW7572 Weather Reports


Display with metric or nautical units.
time (UTC)temp
F
wind
direction
speed
MPH
gust
MPH
rain 1hr
in
rain 24hr
in
rain mn
in
humidity
%
barometer
mb
20190223230516 30 0 18.0 21.0 0.00 0.10 0.10 98 1005.2
20190223225516 30 0 18.0 23.0 0.00 0.10 0.10 98 1005.4
20190223224517 30 0 16.0 20.0 0.00 0.10 0.10 98 1005.6
20190223223517 30 22 16.0 19.0 0.00 0.10 0.10 98 1005.6
20190223222516 30 22 16.0 20.0 0.00 0.10 0.10 98 1005.7
20190223221516 30 22 16.0 19.0 0.00 0.10 0.10 98 1005.6
20190223220516 31 22 14.0 18.0 0.00 0.10 0.10 98 1005.6
20190223215516 31 22 14.0 19.0 0.00 0.10 0.10 98 1005.8
20190223215018 31 22 14.0 16.0 0.00 0.10 0.10 98 1006.0
20190223214017 31 22 11.0 14.0 0.00 0.10 0.10 98 1006.6
20190223213018 31 22 14.0 17.0 0.00 0.10 0.10 98 1006.5
20190223212016 31 22 12.0 16.0 0.00 0.10 0.10 98 1006.8
20190223211020 31 22 11.0 15.0 0.00 0.10 0.10 98 1006.9
20190223210016 31 22 10.0 12.0 0.00 0.10 0.10 98 1007.1
20190223205016 31 0 9.0 13.0 0.00 0.10 0.10 98 1007.1
20190223204016 32 0 11.0 14.0 0.00 0.10 0.10 98 1007.1
20190223203016 32 0 10.0 14.0 0.00 0.10 0.10 98 1007.3
20190223202017 32 0 9.0 12.0 0.00 0.10 0.10 98 1007.8
20190223201016 32 0 8.0 10.0 0.00 0.10 0.10 98 1008.3
20190223200017 32 22 9.0 10.0 0.01 0.10 0.10 98 1008.3
20190223195016 32 0 10.0 12.0 0.01 0.10 0.10 98 1008.2
20190223194016 32 22 7.0 10.0 0.01 0.10 0.10 99 1008.6
20190223193016 32 45 4.0 5.0 0.01 0.10 0.10 99 1009.0
20190223192016 32 67 3.0 4.0 0.02 0.10 0.10 98 1009.0
20190223191016 32 67 3.0 4.0 0.02 0.10 0.10 99 1009.1
20190223190016 32 67 4.0 5.0 0.01 0.09 0.09 99 1009.2
20190223185016 32 45 4.0 5.0 0.02 0.09 0.09 98 1009.5
20190223184016 32 67 3.0 4.0 0.03 0.09 0.09 98 1009.8
20190223183016 32 45 5.0 6.0 0.03 0.09 0.09 98 1009.6
20190223182017 32 67 4.0 5.0 0.03 0.08 0.08 98 1010.0
20190223181016 32 22 5.0 6.0 0.04 0.08 0.08 98 1009.9
20190223180017 32 45 4.0 5.0 0.04 0.08 0.08 99 1010.0
20190223175016 32 112 2.0 3.0 0.04 0.07 0.07 98 1010.8
20190223174017 32 112 2.0 3.0 0.03 0.06 0.06 99 1011.0
20190223173016 32 112 2.0 4.0 0.05 0.06 0.06 99 1011.2
20190223172016 32 135 3.0 4.0 0.04 0.05 0.05 99 1011.5
20190223171017 32 135 6.0 8.0 0.04 0.04 0.04 99 1011.7
20190223170016 32 157 6.0 9.0 0.04 0.04 0.04 99 1011.9
20190223165016 32 135 4.0 8.0 0.03 0.03 0.03 99 1012.0
20190223164016 31 90 4.0 4.0 0.03 0.03 0.03 99 1012.0
20190223163016 31 90 3.0 6.0 0.01 0.01 0.01 99 1012.0
20190223162016 31 90 3.0 4.0 0.01 0.01 0.01 99 1012.2
20190223161016 30 90 4.0 4.0 0.00 0.00 0.00 99 1012.3
20190223160016 30 112 3.0 4.0 0.00 0.00 0.00 99 1012.4
20190223155016 30 112 4.0 6.0 0.00 0.00 0.00 99 1012.4
20190223154016 30 112 6.0 7.0 0.00 0.00 0.00 98 1012.4
20190223153016 30 112 6.0 8.0 0.00 0.00 0.00 98 1012.3
20190223152016 30 112 7.0 9.0 0.00 0.00 0.00 99 1012.3
20190223151016 29 112 8.0 9.0 0.00 0.00 0.00 98 1012.4
20190223150016 29 90 7.0 8.0 0.00 0.00 0.00 99 1012.6
20190223145016 29 90 8.0 10.0 0.00 0.00 0.00 98 1012.7
20190223144016 29 90 7.0 9.0 0.00 0.00 0.00 98 1013.0
20190223143016 29 90 7.0 8.0 0.00 0.00 0.00 98 1013.2
20190223142016 29 90 5.0 7.0 0.00 0.00 0.00 98 1013.3
20190223141016 29 90 4.0 6.0 0.00 0.00 0.00 98 1013.5
20190223140016 29 90 3.0 4.0 0.00 0.00 0.00 98 1013.7
20190223135016 29 112 3.0 4.0 0.00 0.00 0.00 98 1013.7
20190223134016 29 112 3.0 4.0 0.00 0.00 0.00 98 1013.8
20190223133016 29 112 3.0 4.0 0.00 0.00 0.00 98 1013.8
20190223132016 29 112 7.0 8.0 0.00 0.00 0.00 98 1013.7
20190223131016 29 112 7.0 8.0 0.00 0.00 0.00 98 1013.7
20190223130016 29 112 7.0 9.0 0.00 0.00 0.00 98 1013.7
20190223125016 29 112 7.0 9.0 0.00 0.00 0.00 98 1013.8
20190223124016 29 112 8.0 10.0 0.00 0.00 0.00 98 1013.9
20190223123016 29 112 9.0 14.0 0.00 0.00 0.00 98 1014.0
20190223122016 29 112 9.0 11.0 0.00 0.00 0.00 98 1014.1
20190223121016 29 112 10.0 13.0 0.00 0.00 0.00 98 1014.3
20190223120016 29 112 9.0 11.0 0.00 0.00 0.00 98 1014.4
20190223115016 29 112 8.0 9.0 0.00 0.00 0.00 98 1014.6
20190223114016 29 112 9.0 11.0 0.00 0.00 0.00 98 1014.7
20190223113016 29 112 10.0 12.0 0.00 0.00 0.00 98 1014.6
20190223112016 29 112 10.0 12.0 0.00 0.00 0.00 98 1014.9
20190223111016 29 112 9.0 11.0 0.00 0.00 0.00 98 1015.1
20190223110016 29 112 9.0 11.0 0.00 0.00 0.00 98 1015.1
20190223105019 29 112 8.0 11.0 0.00 0.00 0.00 98 1015.2
20190223104017 28 112 8.0 11.0 0.00 0.00 0.00 98 1015.6
20190223103016 28 112 7.0 9.0 0.00 0.00 0.00 98 1015.5
20190223102016 28 112 9.0 11.0 0.00 0.00 0.00 98 1015.4
20190223101016 28 112 10.0 12.0 0.00 0.00 0.00 98 1015.4
20190223100016 27 112 10.0 12.0 0.00 0.00 0.00 98 1015.6
20190223095016 27 90 9.0 11.0 0.00 0.00 0.00 97 1015.9
20190223094016 27 90 8.0 10.0 0.00 0.00 0.00 97 1016.0
20190223093019 27 90 8.0 10.0 0.00 0.00 0.00 97 1016.3
20190223092016 27 112 8.0 10.0 0.00 0.00 0.00 97 1016.4
20190223091016 27 90 8.0 9.0 0.00 0.00 0.00 97 1016.6
20190223090016 27 90 8.0 10.0 0.00 0.00 0.00 97 1016.8
20190223085016 26 90 8.0 9.0 0.00 0.00 0.00 97 1017.1
20190223084016 26 90 8.0 10.0 0.00 0.00 0.00 97 1017.4
20190223083016 26 90 9.0 10.0 0.00 0.00 0.00 97 1017.5
20190223082016 26 90 8.0 10.0 0.00 0.00 0.00 97 1017.8
20190223081016 26 90 8.0 10.0 0.00 0.00 0.00 97 1017.9
20190223080016 26 90 9.0 10.0 0.00 0.00 0.00 97 1018.2
20190223075016 26 112 8.0 10.0 0.00 0.00 0.00 97 1018.4
20190223074016 26 112 9.0 11.0 0.00 0.00 0.00 97 1018.5
20190223073016 26 112 8.0 10.0 0.00 0.00 0.00 97 1018.7
20190223072016 26 112 8.0 10.0 0.00 0.00 0.00 97 1018.8
20190223071016 26 112 7.0 9.0 0.00 0.00 0.00 97 1019.1
20190223070016 26 112 7.0 9.0 0.00 0.00 0.00 96 1019.0
20190223065015 26 112 8.0 9.0 0.00 0.00 0.00 96 1019.0
20190223064016 26 112 8.0 9.0 0.00 0.00 0.00 96 1019.0
20190223063016 26 112 6.0 8.0 0.00 0.00 0.00 96 1019.3
20190223062015 26 112 7.0 9.0 0.00 0.00 0.00 96 1019.3
20190223061016 26 112 10.0 12.0 0.00 0.00 0.00 96 1019.1
20190223060016 26 112 8.0 11.0 0.00 0.00 0.00 95 1019.3
20190223055016 26 112 5.0 8.0 0.00 0.00 0.00 95 1019.4
20190223054017 25 112 4.0 7.0 0.00 0.00 0.00 95 1019.5
20190223053017 25 90 7.0 8.0 0.00 0.00 0.00 95 1019.5
20190223052017 25 112 7.0 9.0 0.00 0.00 0.00 94 1019.8
20190223051017 25 135 9.0 12.0 0.00 0.00 0.00 93 1020.1
20190223050016 25 112 11.0 14.0 0.00 0.00 0.00 93 1020.0
20190223045017 25 112 14.0 17.0 0.00 0.00 0.00 92 1019.9
20190223044016 25 112 14.0 18.0 0.00 0.00 0.00 91 1020.3
20190223043018 25 112 11.0 15.0 0.00 0.00 0.00 90 1020.3
20190223042016 25 112 11.0 15.0 0.00 0.00 0.00 89 1020.6
20190223041017 25 112 11.0 15.0 0.00 0.00 0.00 89 1020.9
20190223040017 25 112 12.0 14.0 0.00 0.00 0.00 89 1021.3
20190223035017 25 112 11.0 13.0 0.00 0.00 0.00 89 1021.2
20190223034017 25 90 11.0 13.0 0.00 0.00 0.00 89 1021.2
20190223033024 25 90 9.0 12.0 0.00 0.00 0.00 90 1021.5
20190223032017 24 90 8.0 11.0 0.00 0.00 0.00 89 1021.7
20190223031017 25 112 8.0 13.0 0.00 0.00 0.00 89 1022.0
20190223030017 24 90 13.0 16.0 0.00 0.00 0.00 89 1021.7
20190223025017 24 90 12.0 15.0 0.00 0.00 0.00 90 1021.8
20190223024016 24 90 12.0 15.0 0.00 0.00 0.00 90 1021.8
20190223023017 24 90 11.0 13.0 0.00 0.00 0.00 91 1022.2
20190223022017 24 90 9.0 11.0 0.00 0.00 0.00 91 1022.3
20190223021016 24 112 7.0 9.0 0.00 0.00 0.00 92 1022.8
20190223020018 24 112 6.0 8.0 0.00 0.00 0.00 92 1022.9
20190223015017 24 90 6.0 7.0 0.00 0.00 0.00 93 1022.6
20190223014017 24 112 8.0 10.0 0.00 0.00 0.00 93 1023.2
20190223013017 24 112 7.0 11.0 0.00 0.00 0.00 93 1023.0
20190223012017 24 67 11.0 13.0 0.00 0.00 0.00 93 1022.7
20190223011017 24 45 13.0 17.0 0.00 0.00 0.00 92 1022.3
20190223010016 24 67 8.0 12.0 0.00 0.00 0.00 92 1023.1
20190223005017 24 112 5.0 7.0 0.00 0.00 0.00 91 1023.8
20190223004017 24 112 6.0 8.0 0.00 0.00 0.00 91 1024.1
20190223003016 24 135 7.0 10.0 0.00 0.00 0.00 91 1024.2
20190223002016 23 90 7.0 10.0 0.00 0.00 0.00 90 1024.0
20190223001016 23 112 8.0 10.0 0.00 0.00 0.00 90 1023.6
20190223000016 23 112 8.0 10.0 0.00 0.00 0.00 90 1023.7
20190222235017 23 112 10.0 12.0 0.00 0.00 0.00 90 1023.5
20190222234016 23 112 10.0 12.0 0.00 0.00 0.00 90 1023.6
20190222233017 23 112 11.0 13.0 0.00 0.00 0.00 90 1023.5
20190222232016 23 112 10.0 12.0 0.00 0.00 0.00 90 1023.5